sensor_id;sensor_type;location;lat;lon;timestamp;P1;durP1;ratioP1;P2;durP2;ratioP2
74080;SDS011;62438;52.228;6.864;2022-09-09T00:00:20;5.88;;;1.50;;
74080;SDS011;62438;52.228;6.864;2022-09-09T00:04:27;6.47;;;1.80;;
74080;SDS011;62438;52.228;6.864;2022-09-09T00:06:45;5.13;;;1.35;;
74080;SDS011;62438;52.228;6.864;2022-09-09T00:09:12;5.00;;;1.52;;
74080;SDS011;62438;52.228;6.864;2022-09-09T00:11:13;6.18;;;1.60;;
74080;SDS011;62438;52.228;6.864;2022-09-09T00:16:09;6.32;;;1.50;;
74080;SDS011;62438;52.228;6.864;2022-09-09T00:18:30;8.18;;;1.60;;
74080;SDS011;62438;52.228;6.864;2022-09-09T00:20:44;5.90;;;1.67;;
74080;SDS011;62438;52.228;6.864;2022-09-09T00:22:55;6.38;;;1.40;;
74080;SDS011;62438;52.228;6.864;2022-09-09T00:25:17;4.90;;;1.20;;
74080;SDS011;62438;52.228;6.864;2022-09-09T00:29:39;4.30;;;1.13;;
74080;SDS011;62438;52.228;6.864;2022-09-09T00:33:44;6.70;;;1.17;;
74080;SDS011;62438;52.228;6.864;2022-09-09T00:38:00;3.45;;;0.98;;
74080;SDS011;62438;52.228;6.864;2022-09-09T00:40:18;3.53;;;1.10;;
74080;SDS011;62438;52.228;6.864;2022-09-09T00:44:33;5.93;;;1.23;;
74080;SDS011;62438;52.228;6.864;2022-09-09T00:46:56;6.25;;;1.25;;
74080;SDS011;62438;52.228;6.864;2022-09-09T00:49:19;4.50;;;1.10;;
74080;SDS011;62438;52.228;6.864;2022-09-09T00:51:41;6.00;;;1.50;;
74080;SDS011;62438;52.228;6.864;2022-09-09T00:56:14;3.30;;;1.10;;
74080;SDS011;62438;52.228;6.864;2022-09-09T00:58:21;4.40;;;1.23;;
74080;SDS011;62438;52.228;6.864;2022-09-09T01:00:23;4.60;;;1.23;;
74080;SDS011;62438;52.228;6.864;2022-09-09T01:02:29;4.60;;;1.50;;
74080;SDS011;62438;52.228;6.864;2022-09-09T01:04:33;5.93;;;1.63;;
74080;SDS011;62438;52.228;6.864;2022-09-09T01:06:36;5.47;;;1.48;;
74080;SDS011;62438;52.228;6.864;2022-09-09T01:09:00;6.88;;;1.70;;
74080;SDS011;62438;52.228;6.864;2022-09-09T01:11:15;6.13;;;1.58;;
74080;SDS011;62438;52.228;6.864;2022-09-09T01:13:32;6.00;;;1.50;;
74080;SDS011;62438;52.228;6.864;2022-09-09T01:15:35;8.25;;;1.85;;
74080;SDS011;62438;52.228;6.864;2022-09-09T01:17:44;7.38;;;1.85;;
74080;SDS011;62438;52.228;6.864;2022-09-09T01:19:55;6.10;;;1.52;;
74080;SDS011;62438;52.228;6.864;2022-09-09T01:22:20;5.68;;;1.52;;
74080;SDS011;62438;52.228;6.864;2022-09-09T01:27:05;5.40;;;1.60;;
74080;SDS011;62438;52.228;6.864;2022-09-09T01:29:08;5.55;;;1.80;;
74080;SDS011;62438;52.228;6.864;2022-09-09T01:31:12;6.38;;;1.83;;
74080;SDS011;62438;52.228;6.864;2022-09-09T01:33:17;7.70;;;2.00;;
74080;SDS011;62438;52.228;6.864;2022-09-09T01:37:42;5.93;;;1.67;;
74080;SDS011;62438;52.228;6.864;2022-09-09T01:39:43;7.30;;;2.10;;
74080;SDS011;62438;52.228;6.864;2022-09-09T01:41:44;6.53;;;2.25;;
74080;SDS011;62438;52.228;6.864;2022-09-09T01:43:45;6.30;;;2.20;;
74080;SDS011;62438;52.228;6.864;2022-09-09T01:45:45;8.02;;;2.42;;
74080;SDS011;62438;52.228;6.864;2022-09-09T01:47:49;7.35;;;2.50;;
74080;SDS011;62438;52.228;6.864;2022-09-09T01:49:51;6.65;;;2.20;;
74080;SDS011;62438;52.228;6.864;2022-09-09T01:51:53;7.28;;;2.70;;
74080;SDS011;62438;52.228;6.864;2022-09-09T01:53:55;9.00;;;2.63;;
74080;SDS011;62438;52.228;6.864;2022-09-09T02:00:18;6.78;;;2.50;;
74080;SDS011;62438;52.228;6.864;2022-09-09T02:02:23;8.23;;;2.50;;
74080;SDS011;62438;52.228;6.864;2022-09-09T02:04:44;8.73;;;2.65;;
74080;SDS011;62438;52.228;6.864;2022-09-09T02:06:49;6.85;;;2.45;;
74080;SDS011;62438;52.228;6.864;2022-09-09T02:08:56;6.72;;;2.50;;
74080;SDS011;62438;52.228;6.864;2022-09-09T02:11:10;7.30;;;2.50;;
74080;SDS011;62438;52.228;6.864;2022-09-09T02:13:14;8.90;;;3.20;;
74080;SDS011;62438;52.228;6.864;2022-09-09T02:15:19;8.25;;;2.60;;
74080;SDS011;62438;52.228;6.864;2022-09-09T02:17:27;8.23;;;2.72;;
74080;SDS011;62438;52.228;6.864;2022-09-09T02:19:35;6.93;;;2.33;;
74080;SDS011;62438;52.228;6.864;2022-09-09T02:21:39;8.95;;;2.67;;
74080;SDS011;62438;52.228;6.864;2022-09-09T02:23:43;7.43;;;2.83;;
74080;SDS011;62438;52.228;6.864;2022-09-09T02:25:46;8.13;;;2.63;;
74080;SDS011;62438;52.228;6.864;2022-09-09T02:27:51;6.68;;;2.78;;
74080;SDS011;62438;52.228;6.864;2022-09-09T02:29:52;7.45;;;2.67;;
74080;SDS011;62438;52.228;6.864;2022-09-09T02:31:55;7.00;;;2.63;;
74080;SDS011;62438;52.228;6.864;2022-09-09T02:33:58;15.93;;;3.08;;
74080;SDS011;62438;52.228;6.864;2022-09-09T02:36:01;9.40;;;2.92;;
74080;SDS011;62438;52.228;6.864;2022-09-09T02:38:04;8.07;;;2.83;;
74080;SDS011;62438;52.228;6.864;2022-09-09T02:40:10;8.38;;;3.00;;
74080;SDS011;62438;52.228;6.864;2022-09-09T02:42:11;7.55;;;2.90;;
74080;SDS011;62438;52.228;6.864;2022-09-09T02:44:16;7.47;;;2.85;;
74080;SDS011;62438;52.228;6.864;2022-09-09T02:46:22;7.93;;;2.97;;
74080;SDS011;62438;52.228;6.864;2022-09-09T02:51:08;7.93;;;2.75;;
74080;SDS011;62438;52.228;6.864;2022-09-09T02:53:22;8.65;;;3.15;;
74080;SDS011;62438;52.228;6.864;2022-09-09T02:59:59;7.55;;;2.83;;
74080;SDS011;62438;52.228;6.864;2022-09-09T03:02:01;7.85;;;3.13;;
74080;SDS011;62438;52.228;6.864;2022-09-09T03:04:02;6.97;;;3.05;;
74080;SDS011;62438;52.228;6.864;2022-09-09T03:06:05;8.35;;;3.33;;
74080;SDS011;62438;52.228;6.864;2022-09-09T03:08:05;8.60;;;3.22;;
74080;SDS011;62438;52.228;6.864;2022-09-09T03:10:06;7.97;;;3.42;;
74080;SDS011;62438;52.228;6.864;2022-09-09T03:12:08;8.55;;;3.55;;
74080;SDS011;62438;52.228;6.864;2022-09-09T03:14:08;8.80;;;3.05;;
74080;SDS011;62438;52.228;6.864;2022-09-09T03:16:11;7.65;;;3.35;;
74080;SDS011;62438;52.228;6.864;2022-09-09T03:18:11;8.98;;;3.55;;
74080;SDS011;62438;52.228;6.864;2022-09-09T03:20:12;7.30;;;3.03;;
74080;SDS011;62438;52.228;6.864;2022-09-09T03:22:12;8.15;;;3.15;;
74080;SDS011;62438;52.228;6.864;2022-09-09T03:24:13;8.60;;;3.45;;
74080;SDS011;62438;52.228;6.864;2022-09-09T03:26:14;7.53;;;3.20;;
74080;SDS011;62438;52.228;6.864;2022-09-09T03:28:15;8.90;;;3.70;;
74080;SDS011;62438;52.228;6.864;2022-09-09T03:30:15;8.07;;;3.47;;
74080;SDS011;62438;52.228;6.864;2022-09-09T03:32:16;8.38;;;3.88;;
74080;SDS011;62438;52.228;6.864;2022-09-09T03:34:17;7.40;;;3.60;;
74080;SDS011;62438;52.228;6.864;2022-09-09T03:36:17;8.15;;;3.90;;
74080;SDS011;62438;52.228;6.864;2022-09-09T03:38:18;8.80;;;3.85;;
74080;SDS011;62438;52.228;6.864;2022-09-09T03:40:18;11.23;;;3.92;;
74080;SDS011;62438;52.228;6.864;2022-09-09T03:42:20;9.35;;;4.05;;
74080;SDS011;62438;52.228;6.864;2022-09-09T03:44:21;9.35;;;3.83;;
74080;SDS011;62438;52.228;6.864;2022-09-09T03:46:22;8.60;;;4.07;;
74080;SDS011;62438;52.228;6.864;2022-09-09T03:48:24;8.20;;;3.60;;
74080;SDS011;62438;52.228;6.864;2022-09-09T03:50:26;9.57;;;4.10;;
74080;SDS011;62438;52.228;6.864;2022-09-09T03:52:27;11.93;;;4.30;;
74080;SDS011;62438;52.228;6.864;2022-09-09T03:54:27;9.32;;;4.03;;
74080;SDS011;62438;52.228;6.864;2022-09-09T03:56:28;11.05;;;4.30;;
74080;SDS011;62438;52.228;6.864;2022-09-09T03:58:28;8.52;;;3.72;;
74080;SDS011;62438;52.228;6.864;2022-09-09T04:00:29;9.85;;;4.45;;
74080;SDS011;62438;52.228;6.864;2022-09-09T04:02:32;8.77;;;4.20;;
74080;SDS011;62438;52.228;6.864;2022-09-09T04:04:33;12.05;;;4.60;;
74080;SDS011;62438;52.228;6.864;2022-09-09T04:06:33;11.45;;;4.70;;
74080;SDS011;62438;52.228;6.864;2022-09-09T04:08:34;12.10;;;4.90;;
74080;SDS011;62438;52.228;6.864;2022-09-09T04:10:35;10.23;;;4.82;;
74080;SDS011;62438;52.228;6.864;2022-09-09T04:12:38;15.30;;;5.60;;
74080;SDS011;62438;52.228;6.864;2022-09-09T04:14:39;10.70;;;4.72;;
74080;SDS011;62438;52.228;6.864;2022-09-09T04:16:39;11.70;;;5.15;;
74080;SDS011;62438;52.228;6.864;2022-09-09T04:18:44;12.35;;;5.55;;
74080;SDS011;62438;52.228;6.864;2022-09-09T04:20:48;13.52;;;5.88;;
74080;SDS011;62438;52.228;6.864;2022-09-09T04:22:49;12.15;;;5.72;;
74080;SDS011;62438;52.228;6.864;2022-09-09T04:24:49;11.32;;;5.70;;
74080;SDS011;62438;52.228;6.864;2022-09-09T04:26:49;12.65;;;6.57;;
74080;SDS011;62438;52.228;6.864;2022-09-09T04:28:50;13.13;;;5.78;;
74080;SDS011;62438;52.228;6.864;2022-09-09T04:30:50;11.25;;;5.72;;
74080;SDS011;62438;52.228;6.864;2022-09-09T04:32:52;13.43;;;5.97;;
74080;SDS011;62438;52.228;6.864;2022-09-09T04:34:52;12.27;;;5.63;;
74080;SDS011;62438;52.228;6.864;2022-09-09T04:36:53;11.82;;;5.70;;
74080;SDS011;62438;52.228;6.864;2022-09-09T04:38:53;15.18;;;6.22;;
74080;SDS011;62438;52.228;6.864;2022-09-09T04:40:54;15.52;;;5.90;;
74080;SDS011;62438;52.228;6.864;2022-09-09T04:42:54;13.18;;;6.00;;
74080;SDS011;62438;52.228;6.864;2022-09-09T04:44:55;12.70;;;5.13;;
74080;SDS011;62438;52.228;6.864;2022-09-09T04:46:55;11.10;;;5.07;;
74080;SDS011;62438;52.228;6.864;2022-09-09T04:48:56;14.13;;;5.38;;
74080;SDS011;62438;52.228;6.864;2022-09-09T04:51:00;11.85;;;5.45;;
74080;SDS011;62438;52.228;6.864;2022-09-09T04:53:04;11.57;;;5.20;;
74080;SDS011;62438;52.228;6.864;2022-09-09T04:55:05;12.10;;;5.15;;
74080;SDS011;62438;52.228;6.864;2022-09-09T04:57:06;14.35;;;5.47;;
74080;SDS011;62438;52.228;6.864;2022-09-09T04:59:07;15.63;;;5.55;;
74080;SDS011;62438;52.228;6.864;2022-09-09T05:01:17;12.43;;;4.82;;
74080;SDS011;62438;52.228;6.864;2022-09-09T05:03:20;12.30;;;5.45;;
74080;SDS011;62438;52.228;6.864;2022-09-09T05:05:21;13.57;;;5.13;;
74080;SDS011;62438;52.228;6.864;2022-09-09T05:07:22;13.40;;;5.18;;
74080;SDS011;62438;52.228;6.864;2022-09-09T05:09:22;9.90;;;4.53;;
74080;SDS011;62438;52.228;6.864;2022-09-09T05:11:26;12.00;;;5.20;;
74080;SDS011;62438;52.228;6.864;2022-09-09T05:13:29;16.55;;;5.70;;
74080;SDS011;62438;52.228;6.864;2022-09-09T05:15:32;13.68;;;4.90;;
74080;SDS011;62438;52.228;6.864;2022-09-09T05:17:32;11.23;;;4.93;;
74080;SDS011;62438;52.228;6.864;2022-09-09T05:19:33;15.27;;;5.32;;
74080;SDS011;62438;52.228;6.864;2022-09-09T05:21:34;13.52;;;5.63;;
74080;SDS011;62438;52.228;6.864;2022-09-09T05:23:34;15.25;;;5.30;;
74080;SDS011;62438;52.228;6.864;2022-09-09T05:25:35;10.00;;;4.93;;
74080;SDS011;62438;52.228;6.864;2022-09-09T05:27:36;13.90;;;5.15;;
74080;SDS011;62438;52.228;6.864;2022-09-09T05:29:37;11.70;;;5.35;;
74080;SDS011;62438;52.228;6.864;2022-09-09T05:31:38;11.00;;;4.95;;
74080;SDS011;62438;52.228;6.864;2022-09-09T05:33:40;13.20;;;5.80;;
74080;SDS011;62438;52.228;6.864;2022-09-09T05:35:42;11.55;;;5.47;;
74080;SDS011;62438;52.228;6.864;2022-09-09T05:37:43;11.18;;;5.32;;
74080;SDS011;62438;52.228;6.864;2022-09-09T05:39:44;11.63;;;5.53;;
74080;SDS011;62438;52.228;6.864;2022-09-09T05:41:44;15.32;;;5.85;;
74080;SDS011;62438;52.228;6.864;2022-09-09T05:43:45;12.73;;;5.30;;
74080;SDS011;62438;52.228;6.864;2022-09-09T05:45:47;10.63;;;5.63;;
74080;SDS011;62438;52.228;6.864;2022-09-09T05:47:51;11.23;;;5.13;;
74080;SDS011;62438;52.228;6.864;2022-09-09T05:49:53;12.70;;;5.90;;
74080;SDS011;62438;52.228;6.864;2022-09-09T05:51:55;11.82;;;4.70;;
74080;SDS011;62438;52.228;6.864;2022-09-09T05:53:55;12.05;;;4.93;;
74080;SDS011;62438;52.228;6.864;2022-09-09T05:56:05;13.88;;;5.30;;
74080;SDS011;62438;52.228;6.864;2022-09-09T05:58:10;11.63;;;4.88;;
74080;SDS011;62438;52.228;6.864;2022-09-09T06:00:11;10.63;;;4.80;;
74080;SDS011;62438;52.228;6.864;2022-09-09T06:02:13;12.10;;;4.95;;
74080;SDS011;62438;52.228;6.864;2022-09-09T06:04:13;12.48;;;4.25;;
74080;SDS011;62438;52.228;6.864;2022-09-09T06:06:15;9.85;;;4.18;;
74080;SDS011;62438;52.228;6.864;2022-09-09T06:08:17;11.40;;;4.97;;
74080;SDS011;62438;52.228;6.864;2022-09-09T06:10:18;9.07;;;4.32;;
74080;SDS011;62438;52.228;6.864;2022-09-09T06:12:19;12.80;;;4.90;;
74080;SDS011;62438;52.228;6.864;2022-09-09T06:14:20;14.63;;;4.43;;
74080;SDS011;62438;52.228;6.864;2022-09-09T06:16:22;10.55;;;4.03;;
74080;SDS011;62438;52.228;6.864;2022-09-09T06:18:26;11.95;;;4.07;;
74080;SDS011;62438;52.228;6.864;2022-09-09T06:20:26;14.75;;;3.72;;
74080;SDS011;62438;52.228;6.864;2022-09-09T06:22:30;11.10;;;4.00;;
74080;SDS011;62438;52.228;6.864;2022-09-09T06:24:30;13.98;;;3.60;;
74080;SDS011;62438;52.228;6.864;2022-09-09T06:26:35;9.40;;;3.75;;
74080;SDS011;62438;52.228;6.864;2022-09-09T06:28:37;12.02;;;4.18;;
74080;SDS011;62438;52.228;6.864;2022-09-09T06:30:38;11.55;;;3.63;;
74080;SDS011;62438;52.228;6.864;2022-09-09T06:32:39;9.95;;;3.42;;
74080;SDS011;62438;52.228;6.864;2022-09-09T06:34:40;8.85;;;3.03;;
74080;SDS011;62438;52.228;6.864;2022-09-09T06:36:40;8.85;;;3.30;;
74080;SDS011;62438;52.228;6.864;2022-09-09T06:38:41;15.93;;;3.40;;
74080;SDS011;62438;52.228;6.864;2022-09-09T06:40:42;11.18;;;3.50;;
74080;SDS011;62438;52.228;6.864;2022-09-09T06:42:43;9.85;;;2.92;;
74080;SDS011;62438;52.228;6.864;2022-09-09T06:44:44;9.45;;;3.13;;
74080;SDS011;62438;52.228;6.864;2022-09-09T06:46:44;12.52;;;3.35;;
74080;SDS011;62438;52.228;6.864;2022-09-09T06:48:47;11.68;;;2.95;;
74080;SDS011;62438;52.228;6.864;2022-09-09T06:50:49;7.80;;;2.63;;
74080;SDS011;62438;52.228;6.864;2022-09-09T06:52:51;10.43;;;3.00;;
74080;SDS011;62438;52.228;6.864;2022-09-09T06:54:52;7.88;;;2.67;;
74080;SDS011;62438;52.228;6.864;2022-09-09T06:56:53;6.88;;;2.60;;
74080;SDS011;62438;52.228;6.864;2022-09-09T06:58:54;12.07;;;3.17;;
74080;SDS011;62438;52.228;6.864;2022-09-09T07:01:06;7.55;;;2.67;;
74080;SDS011;62438;52.228;6.864;2022-09-09T07:03:07;8.57;;;2.75;;
74080;SDS011;62438;52.228;6.864;2022-09-09T07:05:08;9.23;;;2.60;;
74080;SDS011;62438;52.228;6.864;2022-09-09T07:07:08;8.93;;;2.40;;
74080;SDS011;62438;52.228;6.864;2022-09-09T07:09:13;8.63;;;2.33;;
74080;SDS011;62438;52.228;6.864;2022-09-09T07:11:15;12.77;;;2.40;;
74080;SDS011;62438;52.228;6.864;2022-09-09T07:13:16;11.25;;;3.40;;
74080;SDS011;62438;52.228;6.864;2022-09-09T07:15:16;8.43;;;2.13;;
74080;SDS011;62438;52.228;6.864;2022-09-09T07:17:18;7.47;;;2.50;;
74080;SDS011;62438;52.228;6.864;2022-09-09T07:19:19;9.07;;;2.40;;
74080;SDS011;62438;52.228;6.864;2022-09-09T07:21:19;9.07;;;2.45;;
74080;SDS011;62438;52.228;6.864;2022-09-09T07:23:20;9.50;;;2.42;;
74080;SDS011;62438;52.228;6.864;2022-09-09T07:25:22;12.57;;;2.20;;
74080;SDS011;62438;52.228;6.864;2022-09-09T07:27:22;8.73;;;2.58;;
74080;SDS011;62438;52.228;6.864;2022-09-09T07:29:22;8.85;;;2.33;;
74080;SDS011;62438;52.228;6.864;2022-09-09T07:31:24;11.82;;;2.03;;
74080;SDS011;62438;52.228;6.864;2022-09-09T07:33:33;8.30;;;2.30;;
74080;SDS011;62438;52.228;6.864;2022-09-09T07:35:34;10.50;;;2.15;;
74080;SDS011;62438;52.228;6.864;2022-09-09T07:37:37;7.68;;;2.25;;
74080;SDS011;62438;52.228;6.864;2022-09-09T07:39:38;7.80;;;1.70;;
74080;SDS011;62438;52.228;6.864;2022-09-09T07:41:39;8.80;;;2.00;;
74080;SDS011;62438;52.228;6.864;2022-09-09T07:43:44;11.18;;;2.20;;
74080;SDS011;62438;52.228;6.864;2022-09-09T07:45:47;7.78;;;1.83;;
74080;SDS011;62438;52.228;6.864;2022-09-09T07:49:50;7.43;;;1.80;;
74080;SDS011;62438;52.228;6.864;2022-09-09T07:51:50;6.90;;;1.90;;
74080;SDS011;62438;52.228;6.864;2022-09-09T07:53:52;8.95;;;1.75;;
74080;SDS011;62438;52.228;6.864;2022-09-09T07:55:54;8.02;;;1.80;;
74080;SDS011;62438;52.228;6.864;2022-09-09T07:57:55;8.88;;;1.95;;
74080;SDS011;62438;52.228;6.864;2022-09-09T07:59:56;6.80;;;2.00;;
74080;SDS011;62438;52.228;6.864;2022-09-09T08:01:57;13.90;;;2.40;;
74080;SDS011;62438;52.228;6.864;2022-09-09T08:03:59;10.80;;;2.03;;
74080;SDS011;62438;52.228;6.864;2022-09-09T08:06:02;7.90;;;1.98;;
74080;SDS011;62438;52.228;6.864;2022-09-09T08:08:07;9.05;;;1.73;;
74080;SDS011;62438;52.228;6.864;2022-09-09T08:10:09;11.30;;;2.00;;
74080;SDS011;62438;52.228;6.864;2022-09-09T08:12:09;7.32;;;1.85;;
74080;SDS011;62438;52.228;6.864;2022-09-09T08:14:11;8.77;;;1.77;;
74080;SDS011;62438;52.228;6.864;2022-09-09T08:16:13;11.38;;;1.90;;
74080;SDS011;62438;52.228;6.864;2022-09-09T08:18:15;17.77;;;2.22;;
74080;SDS011;62438;52.228;6.864;2022-09-09T08:20:15;10.57;;;2.20;;
74080;SDS011;62438;52.228;6.864;2022-09-09T08:22:15;12.45;;;2.00;;
74080;SDS011;62438;52.228;6.864;2022-09-09T08:24:16;8.25;;;1.98;;
74080;SDS011;62438;52.228;6.864;2022-09-09T08:26:19;9.55;;;1.60;;
74080;SDS011;62438;52.228;6.864;2022-09-09T08:28:22;9.48;;;2.00;;
74080;SDS011;62438;52.228;6.864;2022-09-09T08:30:22;9.43;;;1.67;;
74080;SDS011;62438;52.228;6.864;2022-09-09T08:32:22;8.48;;;1.58;;
74080;SDS011;62438;52.228;6.864;2022-09-09T08:34:23;10.27;;;1.95;;
74080;SDS011;62438;52.228;6.864;2022-09-09T08:36:27;8.05;;;1.58;;
74080;SDS011;62438;52.228;6.864;2022-09-09T08:38:29;8.07;;;1.42;;
74080;SDS011;62438;52.228;6.864;2022-09-09T08:40:33;10.68;;;2.35;;
74080;SDS011;62438;52.228;6.864;2022-09-09T08:42:47;10.43;;;1.70;;
74080;SDS011;62438;52.228;6.864;2022-09-09T08:51:19;5.90;;;1.45;;
74080;SDS011;62438;52.228;6.864;2022-09-09T08:53:23;8.35;;;1.55;;
74080;SDS011;62438;52.228;6.864;2022-09-09T08:55:41;10.77;;;2.00;;
74080;SDS011;62438;52.228;6.864;2022-09-09T08:57:46;11.07;;;1.80;;
74080;SDS011;62438;52.228;6.864;2022-09-09T08:59:49;11.05;;;2.03;;
74080;SDS011;62438;52.228;6.864;2022-09-09T09:02:00;14.20;;;1.75;;
74080;SDS011;62438;52.228;6.864;2022-09-09T09:06:55;9.32;;;1.40;;
74080;SDS011;62438;52.228;6.864;2022-09-09T09:11:25;6.32;;;1.30;;
74080;SDS011;62438;52.228;6.864;2022-09-09T09:15:36;13.18;;;1.50;;
74080;SDS011;62438;52.228;6.864;2022-09-09T09:17:38;11.27;;;1.40;;
74080;SDS011;62438;52.228;6.864;2022-09-09T09:19:39;7.40;;;1.30;;
74080;SDS011;62438;52.228;6.864;2022-09-09T09:21:44;12.93;;;1.40;;
74080;SDS011;62438;52.228;6.864;2022-09-09T09:23:58;5.32;;;0.90;;
74080;SDS011;62438;52.228;6.864;2022-09-09T09:25:59;8.27;;;1.20;;
74080;SDS011;62438;52.228;6.864;2022-09-09T09:30:14;9.02;;;1.13;;
74080;SDS011;62438;52.228;6.864;2022-09-09T09:32:18;6.88;;;1.40;;
74080;SDS011;62438;52.228;6.864;2022-09-09T09:34:21;6.38;;;1.10;;
74080;SDS011;62438;52.228;6.864;2022-09-09T09:36:33;10.70;;;1.38;;
74080;SDS011;62438;52.228;6.864;2022-09-09T09:38:38;6.57;;;1.10;;
74080;SDS011;62438;52.228;6.864;2022-09-09T09:40:47;6.32;;;1.00;;
74080;SDS011;62438;52.228;6.864;2022-09-09T09:42:59;5.47;;;1.15;;
74080;SDS011;62438;52.228;6.864;2022-09-09T09:45:07;7.15;;;1.15;;
74080;SDS011;62438;52.228;6.864;2022-09-09T09:47:20;6.75;;;1.60;;
74080;SDS011;62438;52.228;6.864;2022-09-09T09:49:22;6.65;;;1.17;;
74080;SDS011;62438;52.228;6.864;2022-09-09T09:51:22;8.55;;;1.50;;
74080;SDS011;62438;52.228;6.864;2022-09-09T09:53:25;9.27;;;1.30;;
74080;SDS011;62438;52.228;6.864;2022-09-09T09:55:28;6.03;;;1.20;;
74080;SDS011;62438;52.228;6.864;2022-09-09T09:57:31;8.77;;;1.10;;
74080;SDS011;62438;52.228;6.864;2022-09-09T09:59:33;6.53;;;1.10;;
74080;SDS011;62438;52.228;6.864;2022-09-09T10:28:33;9.20;;;1.65;;
74080;SDS011;62438;52.228;6.864;2022-09-09T10:33:33;6.35;;;1.10;;
74080;SDS011;62438;52.228;6.864;2022-09-09T10:35:58;7.63;;;1.13;;
74080;SDS011;62438;52.228;6.864;2022-09-09T10:38:18;9.65;;;1.20;;
74080;SDS011;62438;52.228;6.864;2022-09-09T10:40:41;8.70;;;1.25;;
74080;SDS011;62438;52.228;6.864;2022-09-09T10:42:44;5.07;;;0.90;;
74080;SDS011;62438;52.228;6.864;2022-09-09T10:47:06;4.63;;;1.02;;
74080;SDS011;62438;52.228;6.864;2022-09-09T10:49:22;4.55;;;0.90;;
74080;SDS011;62438;52.228;6.864;2022-09-09T10:56:26;7.45;;;1.17;;
74080;SDS011;62438;52.228;6.864;2022-09-09T10:58:29;7.70;;;1.30;;
74080;SDS011;62438;52.228;6.864;2022-09-09T11:00:38;6.55;;;1.05;;
74080;SDS011;62438;52.228;6.864;2022-09-09T11:02:42;5.30;;;0.90;;
74080;SDS011;62438;52.228;6.864;2022-09-09T11:05:01;5.43;;;1.00;;
74080;SDS011;62438;52.228;6.864;2022-09-09T11:07:06;7.05;;;1.27;;
74080;SDS011;62438;52.228;6.864;2022-09-09T11:09:17;7.57;;;1.50;;
74080;SDS011;62438;52.228;6.864;2022-09-09T11:11:26;5.97;;;1.30;;
74080;SDS011;62438;52.228;6.864;2022-09-09T11:16:00;5.85;;;1.05;;
74080;SDS011;62438;52.228;6.864;2022-09-09T11:18:25;7.47;;;1.40;;
74080;SDS011;62438;52.228;6.864;2022-09-09T11:20:29;5.95;;;1.02;;
74080;SDS011;62438;52.228;6.864;2022-09-09T11:22:39;4.68;;;0.90;;
74080;SDS011;62438;52.228;6.864;2022-09-09T11:27:37;6.78;;;1.92;;
74080;SDS011;62438;52.228;6.864;2022-09-09T11:38:16;7.47;;;1.10;;
74080;SDS011;62438;52.228;6.864;2022-09-09T11:40:24;5.47;;;1.15;;
74080;SDS011;62438;52.228;6.864;2022-09-09T11:42:27;7.05;;;1.20;;
74080;SDS011;62438;52.228;6.864;2022-09-09T11:44:28;6.25;;;1.08;;
74080;SDS011;62438;52.228;6.864;2022-09-09T11:46:34;5.60;;;0.95;;
74080;SDS011;62438;52.228;6.864;2022-09-09T11:48:41;7.55;;;1.05;;
74080;SDS011;62438;52.228;6.864;2022-09-09T11:50:58;6.50;;;1.08;;
74080;SDS011;62438;52.228;6.864;2022-09-09T11:57:32;5.18;;;1.20;;
74080;SDS011;62438;52.228;6.864;2022-09-09T11:59:35;6.35;;;1.02;;
74080;SDS011;62438;52.228;6.864;2022-09-09T12:01:37;6.38;;;1.40;;
74080;SDS011;62438;52.228;6.864;2022-09-09T12:03:50;5.07;;;0.82;;
74080;SDS011;62438;52.228;6.864;2022-09-09T12:05:55;8.38;;;1.30;;
74080;SDS011;62438;52.228;6.864;2022-09-09T12:07:59;5.05;;;0.93;;
74080;SDS011;62438;52.228;6.864;2022-09-09T12:14:21;8.32;;;1.30;;
74080;SDS011;62438;52.228;6.864;2022-09-09T12:16:43;4.22;;;1.00;;
74080;SDS011;62438;52.228;6.864;2022-09-09T12:18:43;10.27;;;1.17;;
74080;SDS011;62438;52.228;6.864;2022-09-09T12:21:06;7.10;;;1.08;;
74080;SDS011;62438;52.228;6.864;2022-09-09T12:25:41;6.35;;;0.80;;
74080;SDS011;62438;52.228;6.864;2022-09-09T12:28:03;5.82;;;1.13;;
74080;SDS011;62438;52.228;6.864;2022-09-09T12:30:10;6.00;;;1.00;;
74080;SDS011;62438;52.228;6.864;2022-09-09T12:32:15;5.57;;;0.75;;
74080;SDS011;62438;52.228;6.864;2022-09-09T12:34:41;8.88;;;0.88;;
74080;SDS011;62438;52.228;6.864;2022-09-09T12:36:48;7.32;;;1.15;;
74080;SDS011;62438;52.228;6.864;2022-09-09T12:38:56;5.97;;;0.93;;
74080;SDS011;62438;52.228;6.864;2022-09-09T12:41:50;4.88;;;1.00;;
74080;SDS011;62438;52.228;6.864;2022-09-09T12:43:37;4.05;;;0.82;;
74080;SDS011;62438;52.228;6.864;2022-09-09T12:45:38;4.95;;;0.95;;
74080;SDS011;62438;52.228;6.864;2022-09-09T12:47:42;7.25;;;1.10;;
74080;SDS011;62438;52.228;6.864;2022-09-09T12:49:45;5.53;;;1.00;;
74080;SDS011;62438;52.228;6.864;2022-09-09T12:51:49;5.03;;;0.90;;
74080;SDS011;62438;52.228;6.864;2022-09-09T12:53:50;7.25;;;1.02;;
74080;SDS011;62438;52.228;6.864;2022-09-09T12:55:56;4.20;;;0.90;;
74080;SDS011;62438;52.228;6.864;2022-09-09T12:57:58;6.28;;;1.13;;
74080;SDS011;62438;52.228;6.864;2022-09-09T13:00:19;5.80;;;0.95;;
74080;SDS011;62438;52.228;6.864;2022-09-09T13:02:24;6.10;;;0.90;;
74080;SDS011;62438;52.228;6.864;2022-09-09T13:04:25;6.47;;;1.00;;
74080;SDS011;62438;52.228;6.864;2022-09-09T13:06:30;6.38;;;1.10;;
74080;SDS011;62438;52.228;6.864;2022-09-09T13:08:31;3.85;;;1.02;;
74080;SDS011;62438;52.228;6.864;2022-09-09T13:10:36;9.60;;;1.00;;
74080;SDS011;62438;52.228;6.864;2022-09-09T13:12:40;5.88;;;1.10;;
74080;SDS011;62438;52.228;6.864;2022-09-09T13:16:56;2.70;;;0.75;;
74080;SDS011;62438;52.228;6.864;2022-09-09T13:18:59;4.95;;;0.98;;
74080;SDS011;62438;52.228;6.864;2022-09-09T13:21:15;6.80;;;0.93;;
74080;SDS011;62438;52.228;6.864;2022-09-09T13:23:15;4.35;;;0.90;;
74080;SDS011;62438;52.228;6.864;2022-09-09T13:25:23;7.25;;;1.08;;
74080;SDS011;62438;52.228;6.864;2022-09-09T13:27:35;6.07;;;1.35;;
74080;SDS011;62438;52.228;6.864;2022-09-09T13:29:39;6.38;;;1.10;;
74080;SDS011;62438;52.228;6.864;2022-09-09T13:31:50;5.00;;;0.90;;
74080;SDS011;62438;52.228;6.864;2022-09-09T13:33:57;4.53;;;0.70;;
74080;SDS011;62438;52.228;6.864;2022-09-09T13:36:04;3.92;;;0.90;;
74080;SDS011;62438;52.228;6.864;2022-09-09T13:38:12;4.13;;;0.75;;
74080;SDS011;62438;52.228;6.864;2022-09-09T13:40:18;4.05;;;0.73;;
74080;SDS011;62438;52.228;6.864;2022-09-09T13:42:28;3.45;;;0.70;;
74080;SDS011;62438;52.228;6.864;2022-09-09T13:44:32;3.55;;;0.70;;
74080;SDS011;62438;52.228;6.864;2022-09-09T13:46:37;5.38;;;0.70;;
74080;SDS011;62438;52.228;6.864;2022-09-09T13:48:42;2.85;;;0.70;;
74080;SDS011;62438;52.228;6.864;2022-09-09T13:50:42;5.38;;;0.80;;
74080;SDS011;62438;52.228;6.864;2022-09-09T13:52:55;3.47;;;0.70;;
74080;SDS011;62438;52.228;6.864;2022-09-09T13:55:00;3.78;;;0.70;;
74080;SDS011;62438;52.228;6.864;2022-09-09T13:57:00;3.58;;;0.75;;
74080;SDS011;62438;52.228;6.864;2022-09-09T13:59:02;2.90;;;0.77;;
74080;SDS011;62438;52.228;6.864;2022-09-09T14:01:04;3.97;;;0.80;;
74080;SDS011;62438;52.228;6.864;2022-09-09T14:03:05;4.00;;;0.80;;
74080;SDS011;62438;52.228;6.864;2022-09-09T14:05:07;5.35;;;0.70;;
74080;SDS011;62438;52.228;6.864;2022-09-09T14:07:11;6.93;;;0.90;;
74080;SDS011;62438;52.228;6.864;2022-09-09T14:09:14;2.78;;;0.60;;
74080;SDS011;62438;52.228;6.864;2022-09-09T14:11:16;2.78;;;0.50;;
74080;SDS011;62438;52.228;6.864;2022-09-09T14:13:16;4.88;;;0.70;;
74080;SDS011;62438;52.228;6.864;2022-09-09T14:15:17;3.20;;;0.90;;
74080;SDS011;62438;52.228;6.864;2022-09-09T14:17:20;6.45;;;0.93;;
74080;SDS011;62438;52.228;6.864;2022-09-09T14:19:41;5.43;;;1.05;;
74080;SDS011;62438;52.228;6.864;2022-09-09T14:21:42;3.70;;;0.82;;